This is the latest recevied weather packets stored in our database for station/object LRBV. If no packets are shown the sender has not sent any weather packets the latest 10 day(s).
| Time | Temp. | Humidity | Pressure | Rain* | Wind** | Luminosity | Snow |
|---|---|---|---|---|---|---|---|
| 1777317531 | 5° C | 61% | 1019 hPa | - | - | - | - |
| 1777316631 | 5° C | 61% | 1019 hPa | - | - | - | - |
| 1777315730 | 7.22° C | 57% | 1019 hPa | - | - | - | - |
| 1777314831 | 7.22° C | 57% | 1019 hPa | - | - | - | - |
| 1777313930 | 10° C | 40% | 1018 hPa | - | - | - | - |
| 1777313030 | 10° C | 40% | 1018 hPa | - | - | - | - |
| 1777312131 | 11.11° C | 41% | 1018 hPa | - | - | - | - |
| 1777311231 | 11.11° C | 41% | 1018 hPa | - | - | - | - |
| 1777310328 | 12.22° C | 44% | 1018 hPa | - | - | - | - |
| 1777309431 | 12.22° C | 44% | 1018 hPa | - | - | - | - |
| 1777308531 | 12.78° C | 38% | 1018 hPa | - | - | - | - |
| 1777307631 | 12.78° C | 38% | 1018 hPa | - | - | - | - |
| 1777306754 | 13.89° C | 33% | 1018 hPa | - | - | - | - |
| 1777305830 | 13.89° C | 33% | 1018 hPa | - | - | - | - |
| 1777304930 | 13.89° C | 33% | 1018 hPa | - | - | - | - |
| 1777304031 | 13.89° C | 33% | 1018 hPa | - | - | - | - |
| 1777303130 | 15° C | 34% | 1018 hPa | - | - | - | - |
| 1777302231 | 15° C | 34% | 1018 hPa | - | - | - | - |
| 1777301331 | 15° C | 34% | 1019 hPa | - | - | - | - |
| 1777300430 | 15° C | 34% | 1019 hPa | - | - | - | - |
| 1777299614 | 15° C | 34% | 1019 hPa | - | - | - | - |
| 1777298630 | 15° C | 34% | 1019 hPa | - | - | - | - |
| 1777297731 | 15° C | 29% | 1019 hPa | - | - | - | - |
| 1777296835 | 15° C | 29% | 1019 hPa | - | - | - | - |
| 1777295931 | 15° C | 31% | 1020 hPa | - | - | - | - |
* Rain since midnight (hover to see other rain measurements)
** Current wind speed in m/s (hover to see current wind gust speed)